sensor_id;sensor_type;location;lat;lon;timestamp;P1;durP1;ratioP1;P2;durP2;ratioP2
8474;SDS011;4274;52.012;8.448;2023-01-09T00:01:01;42.90;;;3.50;;
8474;SDS011;4274;52.012;8.448;2023-01-09T00:03:27;41.83;;;3.10;;
8474;SDS011;4274;52.012;8.448;2023-01-09T00:05:53;41.97;;;3.40;;
8474;SDS011;4274;52.012;8.448;2023-01-09T00:08:18;41.70;;;3.20;;
8474;SDS011;4274;52.012;8.448;2023-01-09T00:10:44;41.00;;;3.30;;
8474;SDS011;4274;52.012;8.448;2023-01-09T00:13:10;41.43;;;3.27;;
8474;SDS011;4274;52.012;8.448;2023-01-09T00:15:37;42.67;;;3.67;;
8474;SDS011;4274;52.012;8.448;2023-01-09T00:18:03;41.70;;;3.23;;
8474;SDS011;4274;52.012;8.448;2023-01-09T00:20:28;41.13;;;3.30;;
8474;SDS011;4274;52.012;8.448;2023-01-09T00:22:54;42.40;;;3.50;;
8474;SDS011;4274;52.012;8.448;2023-01-09T00:25:19;41.60;;;3.50;;
8474;SDS011;4274;52.012;8.448;2023-01-09T00:27:46;40.70;;;3.17;;
8474;SDS011;4274;52.012;8.448;2023-01-09T00:30:12;42.27;;;3.63;;
8474;SDS011;4274;52.012;8.448;2023-01-09T00:32:38;51.37;;;4.37;;
8474;SDS011;4274;52.012;8.448;2023-01-09T00:35:05;41.50;;;3.70;;
8474;SDS011;4274;52.012;8.448;2023-01-09T00:37:32;43.67;;;4.20;;
8474;SDS011;4274;52.012;8.448;2023-01-09T00:39:58;41.80;;;3.80;;
8474;SDS011;4274;52.012;8.448;2023-01-09T00:42:24;46.10;;;4.40;;
8474;SDS011;4274;52.012;8.448;2023-01-09T00:44:53;42.77;;;4.10;;
8474;SDS011;4274;52.012;8.448;2023-01-09T00:47:24;43.20;;;4.23;;
8474;SDS011;4274;52.012;8.448;2023-01-09T00:50:04;43.57;;;4.00;;
8474;SDS011;4274;52.012;8.448;2023-01-09T00:52:34;43.33;;;4.20;;
8474;SDS011;4274;52.012;8.448;2023-01-09T00:55:02;42.10;;;4.03;;
8474;SDS011;4274;52.012;8.448;2023-01-09T00:57:28;49.50;;;4.57;;
8474;SDS011;4274;52.012;8.448;2023-01-09T00:59:54;42.00;;;4.33;;
8474;SDS011;4274;52.012;8.448;2023-01-09T01:02:21;48.40;;;4.53;;
8474;SDS011;4274;52.012;8.448;2023-01-09T01:04:46;43.07;;;4.97;;
8474;SDS011;4274;52.012;8.448;2023-01-09T01:07:30;43.80;;;4.67;;
8474;SDS011;4274;52.012;8.448;2023-01-09T01:10:08;43.37;;;4.70;;
8474;SDS011;4274;52.012;8.448;2023-01-09T01:12:40;42.83;;;4.13;;
8474;SDS011;4274;52.012;8.448;2023-01-09T01:15:07;46.13;;;5.00;;
8474;SDS011;4274;52.012;8.448;2023-01-09T01:17:34;46.43;;;3.90;;
8474;SDS011;4274;52.012;8.448;2023-01-09T01:20:01;43.33;;;4.23;;
8474;SDS011;4274;52.012;8.448;2023-01-09T01:22:28;41.77;;;3.70;;
8474;SDS011;4274;52.012;8.448;2023-01-09T01:24:54;42.03;;;3.77;;
8474;SDS011;4274;52.012;8.448;2023-01-09T01:27:19;43.23;;;3.30;;
8474;SDS011;4274;52.012;8.448;2023-01-09T01:29:45;45.87;;;3.70;;
8474;SDS011;4274;52.012;8.448;2023-01-09T01:32:10;41.60;;;3.03;;
8474;SDS011;4274;52.012;8.448;2023-01-09T01:34:36;43.23;;;3.40;;
8474;SDS011;4274;52.012;8.448;2023-01-09T01:37:01;41.80;;;3.30;;
8474;SDS011;4274;52.012;8.448;2023-01-09T01:39:27;41.67;;;3.60;;
8474;SDS011;4274;52.012;8.448;2023-01-09T01:41:52;41.67;;;3.40;;
8474;SDS011;4274;52.012;8.448;2023-01-09T01:47:22;40.83;;;2.70;;
8474;SDS011;4274;52.012;8.448;2023-01-09T01:49:52;41.17;;;2.57;;
8474;SDS011;4274;52.012;8.448;2023-01-09T01:52:17;42.63;;;2.80;;
8474;SDS011;4274;52.012;8.448;2023-01-09T01:54:44;40.47;;;2.93;;
8474;SDS011;4274;52.012;8.448;2023-01-09T01:57:11;41.77;;;3.00;;
8474;SDS011;4274;52.012;8.448;2023-01-09T01:59:41;40.70;;;2.70;;
8474;SDS011;4274;52.012;8.448;2023-01-09T02:02:14;42.67;;;2.77;;
8474;SDS011;4274;52.012;8.448;2023-01-09T02:04:42;42.17;;;2.77;;
8474;SDS011;4274;52.012;8.448;2023-01-09T02:07:09;46.80;;;3.13;;
8474;SDS011;4274;52.012;8.448;2023-01-09T02:09:36;42.77;;;3.10;;
8474;SDS011;4274;52.012;8.448;2023-01-09T02:15:06;52.20;;;3.73;;
8474;SDS011;4274;52.012;8.448;2023-01-09T02:28:43;40.30;;;2.90;;
8474;SDS011;4274;52.012;8.448;2023-01-09T02:31:27;42.30;;;3.40;;
8474;SDS011;4274;52.012;8.448;2023-01-09T02:39:26;40.87;;;2.90;;
8474;SDS011;4274;52.012;8.448;2023-01-09T02:42:02;40.17;;;2.53;;
8474;SDS011;4274;52.012;8.448;2023-01-09T02:44:40;39.23;;;2.20;;
8474;SDS011;4274;52.012;8.448;2023-01-09T02:55:25;39.20;;;2.20;;
8474;SDS011;4274;52.012;8.448;2023-01-09T03:04:14;42.67;;;2.90;;
8474;SDS011;4274;52.012;8.448;2023-01-09T03:09:22;41.10;;;2.90;;
8474;SDS011;4274;52.012;8.448;2023-01-09T03:11:59;40.63;;;2.80;;
8474;SDS011;4274;52.012;8.448;2023-01-09T03:14:33;40.90;;;3.00;;
8474;SDS011;4274;52.012;8.448;2023-01-09T03:17:02;42.07;;;3.63;;
8474;SDS011;4274;52.012;8.448;2023-01-09T03:19:31;40.80;;;2.60;;
8474;SDS011;4274;52.012;8.448;2023-01-09T03:21:59;41.07;;;3.30;;
8474;SDS011;4274;52.012;8.448;2023-01-09T03:24:24;43.50;;;3.50;;
8474;SDS011;4274;52.012;8.448;2023-01-09T03:26:50;41.00;;;3.13;;
8474;SDS011;4274;52.012;8.448;2023-01-09T03:29:18;42.87;;;4.20;;
8474;SDS011;4274;52.012;8.448;2023-01-09T03:31:44;43.13;;;3.90;;
8474;SDS011;4274;52.012;8.448;2023-01-09T03:34:09;43.17;;;4.40;;
8474;SDS011;4274;52.012;8.448;2023-01-09T03:36:35;42.37;;;3.83;;
8474;SDS011;4274;52.012;8.448;2023-01-09T03:39:00;45.37;;;4.40;;
8474;SDS011;4274;52.012;8.448;2023-01-09T03:41:26;42.00;;;3.83;;
8474;SDS011;4274;52.012;8.448;2023-01-09T03:43:51;41.40;;;3.63;;
8474;SDS011;4274;52.012;8.448;2023-01-09T03:46:17;41.00;;;3.00;;
8474;SDS011;4274;52.012;8.448;2023-01-09T03:48:42;40.40;;;3.10;;
8474;SDS011;4274;52.012;8.448;2023-01-09T03:51:08;40.17;;;2.90;;
8474;SDS011;4274;52.012;8.448;2023-01-09T03:53:34;45.40;;;3.07;;
8474;SDS011;4274;52.012;8.448;2023-01-09T03:55:59;40.27;;;2.97;;
8474;SDS011;4274;52.012;8.448;2023-01-09T03:58:25;41.50;;;2.70;;
8474;SDS011;4274;52.012;8.448;2023-01-09T04:00:51;39.43;;;2.50;;
8474;SDS011;4274;52.012;8.448;2023-01-09T04:03:22;39.53;;;2.70;;
8474;SDS011;4274;52.012;8.448;2023-01-09T04:05:48;40.13;;;3.27;;
8474;SDS011;4274;52.012;8.448;2023-01-09T04:08:15;40.27;;;3.27;;
8474;SDS011;4274;52.012;8.448;2023-01-09T04:10:44;40.57;;;3.60;;
8474;SDS011;4274;52.012;8.448;2023-01-09T04:13:11;40.03;;;3.37;;
8474;SDS011;4274;52.012;8.448;2023-01-09T04:15:36;41.57;;;3.83;;
8474;SDS011;4274;52.012;8.448;2023-01-09T04:18:02;43.10;;;3.97;;
8474;SDS011;4274;52.012;8.448;2023-01-09T04:20:28;42.27;;;4.33;;
8474;SDS011;4274;52.012;8.448;2023-01-09T04:22:54;42.27;;;4.40;;
8474;SDS011;4274;52.012;8.448;2023-01-09T04:25:19;44.60;;;4.60;;
8474;SDS011;4274;52.012;8.448;2023-01-09T04:27:46;43.40;;;4.70;;
8474;SDS011;4274;52.012;8.448;2023-01-09T04:30:12;42.10;;;4.90;;
8474;SDS011;4274;52.012;8.448;2023-01-09T04:32:38;42.67;;;4.60;;
8474;SDS011;4274;52.012;8.448;2023-01-09T04:35:04;42.77;;;4.90;;
8474;SDS011;4274;52.012;8.448;2023-01-09T04:37:30;42.87;;;5.13;;
8474;SDS011;4274;52.012;8.448;2023-01-09T04:39:55;43.73;;;5.60;;
8474;SDS011;4274;52.012;8.448;2023-01-09T04:42:21;47.80;;;6.10;;
8474;SDS011;4274;52.012;8.448;2023-01-09T04:44:47;44.93;;;5.73;;
8474;SDS011;4274;52.012;8.448;2023-01-09T04:47:17;44.43;;;6.07;;
8474;SDS011;4274;52.012;8.448;2023-01-09T04:49:43;53.53;;;6.17;;
8474;SDS011;4274;52.012;8.448;2023-01-09T04:52:09;43.50;;;5.97;;
8474;SDS011;4274;52.012;8.448;2023-01-09T04:54:34;43.53;;;6.37;;
8474;SDS011;4274;52.012;8.448;2023-01-09T04:57:00;46.30;;;6.80;;
8474;SDS011;4274;52.012;8.448;2023-01-09T04:59:25;44.37;;;6.53;;
8474;SDS011;4274;52.012;8.448;2023-01-09T05:01:51;49.87;;;7.23;;
8474;SDS011;4274;52.012;8.448;2023-01-09T05:04:18;48.97;;;7.20;;
8474;SDS011;4274;52.012;8.448;2023-01-09T05:06:44;48.53;;;7.03;;
8474;SDS011;4274;52.012;8.448;2023-01-09T05:09:09;46.30;;;6.67;;
8474;SDS011;4274;52.012;8.448;2023-01-09T05:11:35;49.00;;;6.80;;
8474;SDS011;4274;52.012;8.448;2023-01-09T05:14:00;46.60;;;7.73;;
8474;SDS011;4274;52.012;8.448;2023-01-09T05:16:26;44.87;;;7.27;;
8474;SDS011;4274;52.012;8.448;2023-01-09T05:18:52;47.63;;;7.83;;
8474;SDS011;4274;52.012;8.448;2023-01-09T05:21:20;55.33;;;8.07;;
8474;SDS011;4274;52.012;8.448;2023-01-09T05:23:47;53.20;;;8.70;;
8474;SDS011;4274;52.012;8.448;2023-01-09T05:26:12;51.53;;;8.63;;
8474;SDS011;4274;52.012;8.448;2023-01-09T05:28:38;48.50;;;8.23;;
8474;SDS011;4274;52.012;8.448;2023-01-09T05:31:04;49.70;;;9.60;;
8474;SDS011;4274;52.012;8.448;2023-01-09T05:33:29;50.87;;;9.10;;
8474;SDS011;4274;52.012;8.448;2023-01-09T05:35:55;50.83;;;9.67;;
8474;SDS011;4274;52.012;8.448;2023-01-09T05:38:20;52.97;;;9.60;;
8474;SDS011;4274;52.012;8.448;2023-01-09T05:40:46;50.23;;;9.23;;
8474;SDS011;4274;52.012;8.448;2023-01-09T05:43:11;51.43;;;10.43;;
8474;SDS011;4274;52.012;8.448;2023-01-09T05:45:37;52.67;;;10.40;;
8474;SDS011;4274;52.012;8.448;2023-01-09T05:48:02;53.60;;;10.37;;
8474;SDS011;4274;52.012;8.448;2023-01-09T05:50:28;54.87;;;11.50;;
8474;SDS011;4274;52.012;8.448;2023-01-09T05:52:54;55.97;;;10.63;;
8474;SDS011;4274;52.012;8.448;2023-01-09T05:55:19;51.40;;;10.50;;
8474;SDS011;4274;52.012;8.448;2023-01-09T05:57:45;60.07;;;10.70;;
8474;SDS011;4274;52.012;8.448;2023-01-09T06:00:10;55.17;;;10.40;;
8474;SDS011;4274;52.012;8.448;2023-01-09T06:02:36;52.77;;;10.47;;
8474;SDS011;4274;52.012;8.448;2023-01-09T06:05:02;62.03;;;10.13;;
8474;SDS011;4274;52.012;8.448;2023-01-09T06:07:28;63.23;;;9.60;;
8474;SDS011;4274;52.012;8.448;2023-01-09T06:09:53;50.57;;;10.23;;
8474;SDS011;4274;52.012;8.448;2023-01-09T06:12:19;52.97;;;10.83;;
8474;SDS011;4274;52.012;8.448;2023-01-09T06:14:44;51.47;;;10.80;;
8474;SDS011;4274;52.012;8.448;2023-01-09T06:17:10;52.33;;;10.27;;
8474;SDS011;4274;52.012;8.448;2023-01-09T06:19:35;51.37;;;10.63;;
8474;SDS011;4274;52.012;8.448;2023-01-09T06:22:01;50.60;;;9.73;;
8474;SDS011;4274;52.012;8.448;2023-01-09T06:24:26;52.07;;;9.90;;
8474;SDS011;4274;52.012;8.448;2023-01-09T06:26:52;53.50;;;10.90;;
8474;SDS011;4274;52.012;8.448;2023-01-09T06:29:18;57.00;;;10.67;;
8474;SDS011;4274;52.012;8.448;2023-01-09T06:31:43;55.87;;;9.97;;
8474;SDS011;4274;52.012;8.448;2023-01-09T06:34:09;53.27;;;10.43;;
8474;SDS011;4274;52.012;8.448;2023-01-09T06:36:34;51.03;;;9.30;;
8474;SDS011;4274;52.012;8.448;2023-01-09T06:39:00;51.20;;;9.80;;
8474;SDS011;4274;52.012;8.448;2023-01-09T06:41:26;55.07;;;10.60;;
8474;SDS011;4274;52.012;8.448;2023-01-09T06:43:51;51.10;;;9.17;;
8474;SDS011;4274;52.012;8.448;2023-01-09T06:46:17;55.30;;;10.30;;
8474;SDS011;4274;52.012;8.448;2023-01-09T06:48:42;54.97;;;9.97;;
8474;SDS011;4274;52.012;8.448;2023-01-09T06:51:08;55.80;;;10.10;;
8474;SDS011;4274;52.012;8.448;2023-01-09T06:53:33;56.50;;;11.00;;
8474;SDS011;4274;52.012;8.448;2023-01-09T06:55:59;51.80;;;8.53;;
8474;SDS011;4274;52.012;8.448;2023-01-09T06:58:26;53.70;;;9.90;;
8474;SDS011;4274;52.012;8.448;2023-01-09T07:00:52;52.40;;;9.80;;
8474;SDS011;4274;52.012;8.448;2023-01-09T07:03:19;49.40;;;8.03;;
8474;SDS011;4274;52.012;8.448;2023-01-09T07:05:46;56.73;;;7.70;;
8474;SDS011;4274;52.012;8.448;2023-01-09T07:08:12;48.43;;;7.63;;
8474;SDS011;4274;52.012;8.448;2023-01-09T07:10:39;48.97;;;7.60;;
8474;SDS011;4274;52.012;8.448;2023-01-09T07:13:05;49.50;;;8.03;;
8474;SDS011;4274;52.012;8.448;2023-01-09T07:15:30;54.83;;;6.00;;
8474;SDS011;4274;52.012;8.448;2023-01-09T07:17:56;50.50;;;6.40;;
8474;SDS011;4274;52.012;8.448;2023-01-09T07:20:22;44.07;;;5.67;;
8474;SDS011;4274;52.012;8.448;2023-01-09T07:22:47;44.47;;;5.70;;
8474;SDS011;4274;52.012;8.448;2023-01-09T07:25:13;45.10;;;6.03;;
8474;SDS011;4274;52.012;8.448;2023-01-09T07:27:38;43.83;;;5.83;;
8474;SDS011;4274;52.012;8.448;2023-01-09T07:30:04;49.27;;;5.67;;
8474;SDS011;4274;52.012;8.448;2023-01-09T07:32:31;46.03;;;5.73;;
8474;SDS011;4274;52.012;8.448;2023-01-09T07:34:56;47.00;;;5.77;;
8474;SDS011;4274;52.012;8.448;2023-01-09T07:37:22;48.40;;;5.43;;
8474;SDS011;4274;52.012;8.448;2023-01-09T07:39:49;43.63;;;5.23;;
8474;SDS011;4274;52.012;8.448;2023-01-09T07:42:14;43.43;;;5.40;;
8474;SDS011;4274;52.012;8.448;2023-01-09T07:44:40;53.30;;;4.37;;
8474;SDS011;4274;52.012;8.448;2023-01-09T07:47:05;44.40;;;4.93;;
8474;SDS011;4274;52.012;8.448;2023-01-09T07:49:31;45.17;;;5.23;;
8474;SDS011;4274;52.012;8.448;2023-01-09T07:51:57;43.67;;;5.03;;
8474;SDS011;4274;52.012;8.448;2023-01-09T07:54:22;45.10;;;4.53;;
8474;SDS011;4274;52.012;8.448;2023-01-09T07:56:48;45.13;;;4.77;;
8474;SDS011;4274;52.012;8.448;2023-01-09T07:59:14;42.87;;;3.70;;
8474;SDS011;4274;52.012;8.448;2023-01-09T08:01:40;44.33;;;4.60;;
8474;SDS011;4274;52.012;8.448;2023-01-09T08:04:05;50.45;;;4.32;;
8474;SDS011;4274;52.012;8.448;2023-01-09T08:06:31;45.60;;;4.73;;
8474;SDS011;4274;52.012;8.448;2023-01-09T08:08:57;47.87;;;4.10;;
8474;SDS011;4274;52.012;8.448;2023-01-09T08:11:23;46.10;;;4.17;;
8474;SDS011;4274;52.012;8.448;2023-01-09T08:13:49;45.93;;;4.53;;
8474;SDS011;4274;52.012;8.448;2023-01-09T08:16:14;52.77;;;4.27;;
8474;SDS011;4274;52.012;8.448;2023-01-09T08:18:40;42.87;;;3.97;;
8474;SDS011;4274;52.012;8.448;2023-01-09T08:21:05;42.93;;;4.57;;
8474;SDS011;4274;52.012;8.448;2023-01-09T08:23:31;45.30;;;4.90;;
8474;SDS011;4274;52.012;8.448;2023-01-09T08:25:57;42.97;;;4.30;;
8474;SDS011;4274;52.012;8.448;2023-01-09T08:28:22;44.00;;;4.37;;
8474;SDS011;4274;52.012;8.448;2023-01-09T08:30:48;44.47;;;4.97;;
8474;SDS011;4274;52.012;8.448;2023-01-09T08:33:13;45.70;;;3.77;;
8474;SDS011;4274;52.012;8.448;2023-01-09T08:35:39;45.63;;;4.00;;
8474;SDS011;4274;52.012;8.448;2023-01-09T08:38:06;45.47;;;4.60;;
8474;SDS011;4274;52.012;8.448;2023-01-09T08:40:32;43.60;;;4.40;;
8474;SDS011;4274;52.012;8.448;2023-01-09T08:42:57;46.27;;;3.93;;
8474;SDS011;4274;52.012;8.448;2023-01-09T08:45:42;44.47;;;3.83;;
8474;SDS011;4274;52.012;8.448;2023-01-09T08:48:45;42.80;;;4.00;;
8474;SDS011;4274;52.012;8.448;2023-01-09T08:51:14;41.80;;;4.03;;
8474;SDS011;4274;52.012;8.448;2023-01-09T08:53:39;43.90;;;4.30;;
8474;SDS011;4274;52.012;8.448;2023-01-09T08:56:05;44.47;;;4.50;;
8474;SDS011;4274;52.012;8.448;2023-01-09T08:58:31;46.63;;;4.80;;
8474;SDS011;4274;52.012;8.448;2023-01-09T09:00:56;42.57;;;4.43;;
8474;SDS011;4274;52.012;8.448;2023-01-09T09:03:25;44.87;;;5.00;;
8474;SDS011;4274;52.012;8.448;2023-01-09T09:05:50;41.80;;;4.00;;
8474;SDS011;4274;52.012;8.448;2023-01-09T09:08:16;48.80;;;5.40;;
8474;SDS011;4274;52.012;8.448;2023-01-09T09:10:41;43.93;;;4.60;;
8474;SDS011;4274;52.012;8.448;2023-01-09T09:13:07;49.50;;;5.23;;
8474;SDS011;4274;52.012;8.448;2023-01-09T09:15:33;45.00;;;4.93;;
8474;SDS011;4274;52.012;8.448;2023-01-09T09:17:59;44.60;;;3.97;;
8474;SDS011;4274;52.012;8.448;2023-01-09T09:20:30;43.37;;;4.23;;
8474;SDS011;4274;52.012;8.448;2023-01-09T09:22:57;43.90;;;4.00;;
8474;SDS011;4274;52.012;8.448;2023-01-09T09:25:23;43.63;;;3.70;;
8474;SDS011;4274;52.012;8.448;2023-01-09T09:27:50;42.80;;;3.20;;
8474;SDS011;4274;52.012;8.448;2023-01-09T09:30:16;43.60;;;3.30;;
8474;SDS011;4274;52.012;8.448;2023-01-09T09:32:43;44.30;;;3.50;;
8474;SDS011;4274;52.012;8.448;2023-01-09T09:35:09;45.88;;;2.90;;
8474;SDS011;4274;52.012;8.448;2023-01-09T09:37:35;41.87;;;3.07;;
8474;SDS011;4274;52.012;8.448;2023-01-09T09:40:01;46.55;;;2.83;;
8474;SDS011;4274;52.012;8.448;2023-01-09T09:48:14;47.03;;;2.67;;
8474;SDS011;4274;52.012;8.448;2023-01-09T09:53:36;41.30;;;2.77;;
8474;SDS011;4274;52.012;8.448;2023-01-09T09:56:07;49.23;;;3.50;;
8474;SDS011;4274;52.012;8.448;2023-01-09T09:58:39;46.60;;;3.63;;
8474;SDS011;4274;52.012;8.448;2023-01-09T10:01:06;43.97;;;3.30;;
8474;SDS011;4274;52.012;8.448;2023-01-09T10:03:37;42.70;;;3.47;;
8474;SDS011;4274;52.012;8.448;2023-01-09T10:06:09;43.20;;;3.40;;
8474;SDS011;4274;52.012;8.448;2023-01-09T10:11:35;45.50;;;3.60;;
8474;SDS011;4274;52.012;8.448;2023-01-09T10:14:08;42.37;;;3.40;;
8474;SDS011;4274;52.012;8.448;2023-01-09T10:27:29;43.53;;;3.83;;
8474;SDS011;4274;52.012;8.448;2023-01-09T10:38:38;45.90;;;3.43;;
8474;SDS011;4274;52.012;8.448;2023-01-09T10:46:59;42.80;;;2.53;;
8474;SDS011;4274;52.012;8.448;2023-01-09T10:49:29;43.43;;;2.80;;
8474;SDS011;4274;52.012;8.448;2023-01-09T10:54:39;41.50;;;2.70;;
8474;SDS011;4274;52.012;8.448;2023-01-09T10:57:13;43.00;;;2.50;;
8474;SDS011;4274;52.012;8.448;2023-01-09T10:59:47;55.33;;;3.13;;
8474;SDS011;4274;52.012;8.448;2023-01-09T11:02:24;42.10;;;2.60;;
8474;SDS011;4274;52.012;8.448;2023-01-09T11:04:54;46.53;;;2.70;;
8474;SDS011;4274;52.012;8.448;2023-01-09T11:07:21;42.03;;;2.53;;
8474;SDS011;4274;52.012;8.448;2023-01-09T11:09:53;45.60;;;3.10;;
8474;SDS011;4274;52.012;8.448;2023-01-09T11:12:26;42.40;;;3.00;;
8474;SDS011;4274;52.012;8.448;2023-01-09T11:14:53;44.80;;;2.67;;
8474;SDS011;4274;52.012;8.448;2023-01-09T11:17:20;51.10;;;3.33;;
8474;SDS011;4274;52.012;8.448;2023-01-09T11:19:59;43.00;;;2.60;;
8474;SDS011;4274;52.012;8.448;2023-01-09T11:22:40;43.80;;;2.80;;
8474;SDS011;4274;52.012;8.448;2023-01-09T11:25:10;40.50;;;2.60;;
8474;SDS011;4274;52.012;8.448;2023-01-09T11:27:37;42.03;;;2.40;;
8474;SDS011;4274;52.012;8.448;2023-01-09T11:30:19;42.13;;;2.43;;
8474;SDS011;4274;52.012;8.448;2023-01-09T11:32:51;44.10;;;2.77;;
8474;SDS011;4274;52.012;8.448;2023-01-09T11:35:37;42.33;;;2.43;;
8474;SDS011;4274;52.012;8.448;2023-01-09T11:38:14;44.90;;;2.67;;
8474;SDS011;4274;52.012;8.448;2023-01-09T11:40:48;42.10;;;2.60;;
8474;SDS011;4274;52.012;8.448;2023-01-09T11:43:20;42.33;;;2.70;;
8474;SDS011;4274;52.012;8.448;2023-01-09T11:45:56;41.40;;;2.63;;
8474;SDS011;4274;52.012;8.448;2023-01-09T11:50:58;40.90;;;2.70;;
8474;SDS011;4274;52.012;8.448;2023-01-09T11:53:25;41.20;;;2.60;;
8474;SDS011;4274;52.012;8.448;2023-01-09T11:58:31;41.30;;;2.50;;
8474;SDS011;4274;52.012;8.448;2023-01-09T12:01:04;42.97;;;2.70;;
8474;SDS011;4274;52.012;8.448;2023-01-09T12:20:57;42.77;;;3.10;;
8474;SDS011;4274;52.012;8.448;2023-01-09T12:23:51;43.23;;;3.50;;
8474;SDS011;4274;52.012;8.448;2023-01-09T12:35:29;42.30;;;4.00;;
8474;SDS011;4274;52.012;8.448;2023-01-09T12:38:21;45.80;;;3.80;;
8474;SDS011;4274;52.012;8.448;2023-01-09T12:46:40;46.80;;;4.13;;
8474;SDS011;4274;52.012;8.448;2023-01-09T12:51:49;49.90;;;4.30;;
8474;SDS011;4274;52.012;8.448;2023-01-09T12:57:03;42.90;;;3.50;;
8474;SDS011;4274;52.012;8.448;2023-01-09T12:59:38;45.60;;;3.93;;
8474;SDS011;4274;52.012;8.448;2023-01-09T13:05:39;42.97;;;3.57;;
8474;SDS011;4274;52.012;8.448;2023-01-09T13:07:48;45.37;;;3.50;;
8474;SDS011;4274;52.012;8.448;2023-01-09T13:12:57;45.93;;;3.80;;
8474;SDS011;4274;52.012;8.448;2023-01-09T13:15:35;44.97;;;3.83;;
8474;SDS011;4274;52.012;8.448;2023-01-09T13:18:06;44.53;;;3.73;;
8474;SDS011;4274;52.012;8.448;2023-01-09T13:20:43;43.93;;;3.80;;
8474;SDS011;4274;52.012;8.448;2023-01-09T13:23:17;43.53;;;4.20;;
8474;SDS011;4274;52.012;8.448;2023-01-09T13:26:05;41.63;;;3.90;;
8474;SDS011;4274;52.012;8.448;2023-01-09T13:28:43;50.07;;;4.20;;
8474;SDS011;4274;52.012;8.448;2023-01-09T13:33:55;43.30;;;3.70;;
8474;SDS011;4274;52.012;8.448;2023-01-09T13:39:16;41.40;;;3.67;;
8474;SDS011;4274;52.012;8.448;2023-01-09T13:41:45;46.58;;;3.00;;
8474;SDS011;4274;52.012;8.448;2023-01-09T13:44:30;43.50;;;3.13;;
8474;SDS011;4274;52.012;8.448;2023-01-09T13:46:57;44.40;;;3.40;;
8474;SDS011;4274;52.012;8.448;2023-01-09T13:59:52;46.17;;;3.90;;
8474;SDS011;4274;52.012;8.448;2023-01-09T14:08:00;44.27;;;3.50;;
8474;SDS011;4274;52.012;8.448;2023-01-09T14:10:45;44.47;;;3.40;;
8474;SDS011;4274;52.012;8.448;2023-01-09T14:13:15;43.53;;;3.20;;
8474;SDS011;4274;52.012;8.448;2023-01-09T14:15:44;42.53;;;3.73;;
8474;SDS011;4274;52.012;8.448;2023-01-09T14:20:43;42.77;;;3.50;;
8474;SDS011;4274;52.012;8.448;2023-01-09T14:23:32;42.27;;;3.30;;
8474;SDS011;4274;52.012;8.448;2023-01-09T14:26:19;42.47;;;3.60;;
8474;SDS011;4274;52.012;8.448;2023-01-09T14:28:47;44.70;;;3.50;;
8474;SDS011;4274;52.012;8.448;2023-01-09T14:31:26;43.00;;;4.00;;
8474;SDS011;4274;52.012;8.448;2023-01-09T14:36:48;44.43;;;3.73;;
8474;SDS011;4274;52.012;8.448;2023-01-09T14:39:14;44.37;;;4.53;;
8474;SDS011;4274;52.012;8.448;2023-01-09T14:41:49;46.67;;;4.13;;
8474;SDS011;4274;52.012;8.448;2023-01-09T14:44:50;46.43;;;4.17;;
8474;SDS011;4274;52.012;8.448;2023-01-09T14:50:34;48.20;;;5.00;;
8474;SDS011;4274;52.012;8.448;2023-01-09T14:55:24;45.27;;;4.13;;
8474;SDS011;4274;52.012;8.448;2023-01-09T14:57:53;42.60;;;4.50;;
8474;SDS011;4274;52.012;8.448;2023-01-09T15:00:21;48.10;;;4.67;;
8474;SDS011;4274;52.012;8.448;2023-01-09T15:02:47;46.00;;;4.63;;
8474;SDS011;4274;52.012;8.448;2023-01-09T15:05:17;46.47;;;5.07;;
8474;SDS011;4274;52.012;8.448;2023-01-09T15:07:56;42.73;;;4.40;;
8474;SDS011;4274;52.012;8.448;2023-01-09T15:10:26;45.63;;;4.50;;
8474;SDS011;4274;52.012;8.448;2023-01-09T15:12:54;45.47;;;4.53;;
8474;SDS011;4274;52.012;8.448;2023-01-09T15:15:23;43.33;;;4.83;;
8474;SDS011;4274;52.012;8.448;2023-01-09T15:20:26;45.53;;;5.17;;
8474;SDS011;4274;52.012;8.448;2023-01-09T15:22:54;45.80;;;5.27;;
8474;SDS011;4274;52.012;8.448;2023-01-09T15:27:57;55.47;;;5.30;;
8474;SDS011;4274;52.012;8.448;2023-01-09T15:30:32;45.43;;;5.30;;
8474;SDS011;4274;52.012;8.448;2023-01-09T15:33:00;47.70;;;4.83;;
8474;SDS011;4274;52.012;8.448;2023-01-09T15:35:48;48.87;;;5.13;;
8474;SDS011;4274;52.012;8.448;2023-01-09T15:38:17;44.50;;;5.30;;
8474;SDS011;4274;52.012;8.448;2023-01-09T15:40:58;44.73;;;4.83;;
8474;SDS011;4274;52.012;8.448;2023-01-09T15:43:26;44.70;;;4.70;;
8474;SDS011;4274;52.012;8.448;2023-01-09T15:45:53;44.90;;;4.67;;
8474;SDS011;4274;52.012;8.448;2023-01-09T15:50:47;43.20;;;5.57;;
8474;SDS011;4274;52.012;8.448;2023-01-09T15:53:16;49.77;;;5.70;;
8474;SDS011;4274;52.012;8.448;2023-01-09T15:55:44;46.80;;;6.33;;
8474;SDS011;4274;52.012;8.448;2023-01-09T16:04:06;44.30;;;6.00;;
8474;SDS011;4274;52.012;8.448;2023-01-09T16:06:35;52.20;;;6.77;;
8474;SDS011;4274;52.012;8.448;2023-01-09T16:09:13;49.63;;;7.83;;
8474;SDS011;4274;52.012;8.448;2023-01-09T16:11:43;44.27;;;6.70;;
8474;SDS011;4274;52.012;8.448;2023-01-09T16:17:06;46.50;;;7.57;;
8474;SDS011;4274;52.012;8.448;2023-01-09T16:24:44;49.87;;;9.37;;
8474;SDS011;4274;52.012;8.448;2023-01-09T16:27:33;51.77;;;8.63;;
8474;SDS011;4274;52.012;8.448;2023-01-09T16:29:58;51.20;;;9.10;;
8474;SDS011;4274;52.012;8.448;2023-01-09T16:32:44;49.23;;;8.77;;
8474;SDS011;4274;52.012;8.448;2023-01-09T16:35:18;48.10;;;10.00;;
8474;SDS011;4274;52.012;8.448;2023-01-09T16:37:46;51.77;;;9.83;;
8474;SDS011;4274;52.012;8.448;2023-01-09T16:43:05;49.37;;;9.10;;
8474;SDS011;4274;52.012;8.448;2023-01-09T16:45:39;50.03;;;8.03;;
8474;SDS011;4274;52.012;8.448;2023-01-09T16:48:15;52.03;;;8.17;;
8474;SDS011;4274;52.012;8.448;2023-01-09T16:50:44;49.37;;;8.07;;
8474;SDS011;4274;52.012;8.448;2023-01-09T16:53:15;49.43;;;7.47;;
8474;SDS011;4274;52.012;8.448;2023-01-09T16:55:42;47.37;;;7.30;;
8474;SDS011;4274;52.012;8.448;2023-01-09T16:58:11;57.77;;;7.00;;
8474;SDS011;4274;52.012;8.448;2023-01-09T17:00:39;49.97;;;7.10;;
8474;SDS011;4274;52.012;8.448;2023-01-09T17:03:04;45.57;;;6.00;;
8474;SDS011;4274;52.012;8.448;2023-01-09T17:05:30;43.80;;;5.17;;
8474;SDS011;4274;52.012;8.448;2023-01-09T17:07:55;47.23;;;4.77;;
8474;SDS011;4274;52.012;8.448;2023-01-09T17:10:21;42.80;;;4.60;;
8474;SDS011;4274;52.012;8.448;2023-01-09T17:12:47;41.50;;;4.43;;
8474;SDS011;4274;52.012;8.448;2023-01-09T17:15:13;44.20;;;4.10;;
8474;SDS011;4274;52.012;8.448;2023-01-09T17:17:38;41.70;;;3.90;;
8474;SDS011;4274;52.012;8.448;2023-01-09T17:20:14;42.33;;;3.47;;
8474;SDS011;4274;52.012;8.448;2023-01-09T17:22:41;42.33;;;3.60;;
8474;SDS011;4274;52.012;8.448;2023-01-09T17:25:11;40.37;;;3.33;;
8474;SDS011;4274;52.012;8.448;2023-01-09T17:27:59;39.90;;;3.03;;
8474;SDS011;4274;52.012;8.448;2023-01-09T17:30:44;46.33;;;3.37;;
8474;SDS011;4274;52.012;8.448;2023-01-09T17:33:13;41.87;;;3.40;;
8474;SDS011;4274;52.012;8.448;2023-01-09T17:35:40;40.40;;;2.90;;
8474;SDS011;4274;52.012;8.448;2023-01-09T17:38:08;42.20;;;3.40;;
8474;SDS011;4274;52.012;8.448;2023-01-09T17:40:38;41.50;;;3.40;;
8474;SDS011;4274;52.012;8.448;2023-01-09T17:43:04;44.53;;;3.87;;
8474;SDS011;4274;52.012;8.448;2023-01-09T17:45:29;42.10;;;3.80;;
8474;SDS011;4274;52.012;8.448;2023-01-09T17:47:55;42.43;;;3.60;;
8474;SDS011;4274;52.012;8.448;2023-01-09T17:50:20;40.30;;;3.37;;
8474;SDS011;4274;52.012;8.448;2023-01-09T17:52:47;42.80;;;3.70;;
8474;SDS011;4274;52.012;8.448;2023-01-09T17:55:13;46.87;;;4.80;;
8474;SDS011;4274;52.012;8.448;2023-01-09T17:57:39;44.77;;;4.33;;
8474;SDS011;4274;52.012;8.448;2023-01-09T18:00:25;43.63;;;4.60;;
8474;SDS011;4274;52.012;8.448;2023-01-09T18:02:53;45.83;;;4.40;;
8474;SDS011;4274;52.012;8.448;2023-01-09T18:05:20;43.60;;;4.70;;
8474;SDS011;4274;52.012;8.448;2023-01-09T18:07:46;42.27;;;4.33;;
8474;SDS011;4274;52.012;8.448;2023-01-09T18:10:12;44.40;;;4.50;;
8474;SDS011;4274;52.012;8.448;2023-01-09T18:12:39;48.20;;;5.47;;
8474;SDS011;4274;52.012;8.448;2023-01-09T18:15:04;44.17;;;5.03;;